createdAt,value
2023-02-09T00:00:02.239Z,16.00
2023-02-09T00:01:02.684Z,16.00
2023-02-09T00:02:00.791Z,16.00
2023-02-09T00:03:00.698Z,16.00
2023-02-09T00:04:00.820Z,16.00
2023-02-09T00:05:00.947Z,16.00
2023-02-09T00:06:01.549Z,16.00
2023-02-09T00:07:01.412Z,16.00
2023-02-09T00:08:00.732Z,16.00
2023-02-09T00:09:00.725Z,16.00
2023-02-09T00:10:00.721Z,16.00
2023-02-09T00:11:04.301Z,16.00
2023-02-09T00:12:00.707Z,16.00
2023-02-09T00:13:00.692Z,16.00
2023-02-09T00:14:00.706Z,16.00
2023-02-09T00:15:00.858Z,16.00
2023-02-09T00:16:01.453Z,16.00
2023-02-09T00:17:01.141Z,16.00
2023-02-09T00:18:00.699Z,16.00
2023-02-09T00:19:00.707Z,16.00
2023-02-09T00:20:01.197Z,16.00
2023-02-09T00:21:02.954Z,16.00
2023-02-09T00:22:00.722Z,16.00
2023-02-09T00:23:00.696Z,16.00
2023-02-09T00:24:00.723Z,16.00
2023-02-09T00:25:00.723Z,16.00
2023-02-09T00:26:01.421Z,16.00
2023-02-09T00:27:00.702Z,16.00
2023-02-09T00:28:00.799Z,16.00
2023-02-09T00:29:00.802Z,16.00
2023-02-09T00:30:00.700Z,15.00
2023-02-09T00:31:05.073Z,15.00
2023-02-09T00:32:00.770Z,15.00
2023-02-09T00:33:00.724Z,15.00
2023-02-09T00:34:01.146Z,15.00
2023-02-09T00:35:00.728Z,15.00
2023-02-09T00:36:02.278Z,15.00
2023-02-09T00:37:00.698Z,15.00
2023-02-09T00:38:00.763Z,15.00
2023-02-09T00:39:00.743Z,15.00
2023-02-09T00:40:00.797Z,15.00
2023-02-09T00:41:00.820Z,15.00
2023-02-09T00:42:00.716Z,15.00
2023-02-09T00:43:00.698Z,15.00
2023-02-09T00:44:00.698Z,15.00
2023-02-09T00:45:00.729Z,15.00
2023-02-09T00:46:00.781Z,15.00
2023-02-09T00:47:01.310Z,15.00
2023-02-09T00:48:00.782Z,15.00
2023-02-09T00:49:00.701Z,15.00
2023-02-09T00:50:00.705Z,15.00
2023-02-09T00:51:00.837Z,15.00
2023-02-09T00:52:00.732Z,15.00
2023-02-09T00:53:00.740Z,15.00
2023-02-09T00:54:00.763Z,15.00
2023-02-09T00:55:00.877Z,15.00
2023-02-09T00:56:00.708Z,15.00
2023-02-09T00:57:00.701Z,15.00
2023-02-09T00:58:00.695Z,15.00
2023-02-09T00:59:00.734Z,15.00
2023-02-09T01:00:01.240Z,16.40
2023-02-09T01:01:00.725Z,16.40
2023-02-09T01:02:00.864Z,16.40
2023-02-09T01:03:00.725Z,16.40
2023-02-09T01:04:00.841Z,16.40
2023-02-09T01:05:01.125Z,16.40
2023-02-09T01:06:00.707Z,16.40
2023-02-09T01:07:00.697Z,16.40
2023-02-09T01:08:00.717Z,16.40
2023-02-09T01:09:00.787Z,16.40
2023-02-09T01:10:00.731Z,16.40
2023-02-09T01:11:10.608Z,16.40
2023-02-09T01:12:00.687Z,16.40
2023-02-09T01:13:00.720Z,16.40
2023-02-09T01:14:00.796Z,16.40
2023-02-09T01:15:00.796Z,16.40
2023-02-09T01:16:04.228Z,16.40
2023-02-09T01:17:00.768Z,16.40
2023-02-09T01:18:00.688Z,16.40
2023-02-09T01:19:01.850Z,16.40
2023-02-09T01:20:01.094Z,16.40
2023-02-09T01:21:01.095Z,16.40
2023-02-09T01:22:00.725Z,16.40
2023-02-09T01:23:00.698Z,16.40
2023-02-09T01:24:00.698Z,16.40
2023-02-09T01:25:00.716Z,16.40
2023-02-09T01:26:02.874Z,16.40
2023-02-09T01:27:01.083Z,16.40
2023-02-09T01:28:00.733Z,16.40
2023-02-09T01:29:00.700Z,16.40
2023-02-09T01:30:00.735Z,17.10
2023-02-09T01:31:00.789Z,17.10
2023-02-09T01:32:00.886Z,17.10
2023-02-09T01:33:00.690Z,17.10
2023-02-09T01:34:01.844Z,17.10
2023-02-09T01:35:00.743Z,17.10
2023-02-09T01:36:04.030Z,17.10
2023-02-09T01:37:00.681Z,17.10
2023-02-09T01:38:00.690Z,17.10
2023-02-09T01:39:01.441Z,17.10
2023-02-09T01:40:01.083Z,17.10
2023-02-09T01:41:00.709Z,17.10
2023-02-09T01:42:00.818Z,17.10
2023-02-09T01:43:00.699Z,17.10
2023-02-09T01:44:03.655Z,17.10
2023-02-09T01:45:00.673Z,17.10
2023-02-09T01:46:00.852Z,17.10
2023-02-09T01:47:00.685Z,17.10
2023-02-09T01:48:01.743Z,17.10
2023-02-09T01:49:06.395Z,17.10
2023-02-09T01:50:01.405Z,17.10
2023-02-09T01:51:00.720Z,17.10
2023-02-09T01:52:03.486Z,17.10
2023-02-09T01:53:01.703Z,17.10
2023-02-09T01:54:03.714Z,17.10
2023-02-09T01:55:02.004Z,17.10
2023-02-09T01:56:03.599Z,17.10
2023-02-09T01:57:04.578Z,17.10
2023-02-09T01:58:05.032Z,17.10
2023-02-09T01:59:00.710Z,17.10
2023-02-09T02:00:04.173Z,16.90
2023-02-09T02:01:00.927Z,16.90
2023-02-09T02:02:01.788Z,16.90
2023-02-09T02:03:05.199Z,16.90
2023-02-09T02:04:01.085Z,16.90
2023-02-09T02:05:01.126Z,16.90
2023-02-09T02:06:05.405Z,16.90
2023-02-09T02:07:05.295Z,16.90
2023-02-09T02:08:01.746Z,16.90
2023-02-09T02:09:04.176Z,16.90
2023-02-09T02:10:01.295Z,16.90
2023-02-09T02:11:00.802Z,16.90
2023-02-09T02:12:00.936Z,16.90
2023-02-09T02:13:00.974Z,16.90
2023-02-09T02:14:00.767Z,16.90
2023-02-09T02:15:00.753Z,16.90
2023-02-09T02:16:01.773Z,16.90
2023-02-09T02:17:10.631Z,16.90
2023-02-09T02:18:10.609Z,16.90
2023-02-09T02:19:01.720Z,16.90
2023-02-09T02:20:00.677Z,16.90
2023-02-09T02:21:08.146Z,16.90
2023-02-09T02:22:00.669Z,16.90
2023-02-09T02:23:08.165Z,16.90
2023-02-09T02:24:08.053Z,16.90
2023-02-09T02:25:10.597Z,16.90
2023-02-09T02:26:10.598Z,16.90
2023-02-09T02:27:03.158Z,16.90
2023-02-09T02:28:09.136Z,16.90
2023-02-09T02:29:10.607Z,16.90
2023-02-09T02:30:08.028Z,15.70
2023-02-09T02:31:10.818Z,15.70
2023-02-09T02:32:01.675Z,15.70
2023-02-09T02:33:10.613Z,15.70
2023-02-09T02:34:01.761Z,15.70
2023-02-09T02:35:08.862Z,15.70
2023-02-09T02:36:06.622Z,15.70
2023-02-09T02:37:08.096Z,15.70
2023-02-09T02:38:10.606Z,15.70
2023-02-09T02:39:10.598Z,15.70
2023-02-09T02:40:10.601Z,15.70
2023-02-09T02:41:00.684Z,15.70
2023-02-09T02:42:04.396Z,15.70
2023-02-09T02:43:01.676Z,15.70
2023-02-09T02:44:04.849Z,15.70
2023-02-09T02:45:05.400Z,15.70
2023-02-09T02:46:06.267Z,15.70
2023-02-09T02:47:02.229Z,15.70
2023-02-09T02:48:10.602Z,15.70
2023-02-09T02:49:06.911Z,15.70
2023-02-09T02:50:06.860Z,15.70
2023-02-09T02:51:04.370Z,15.70
2023-02-09T02:52:04.576Z,15.70
2023-02-09T02:53:03.184Z,15.70
2023-02-09T02:54:04.007Z,15.70
2023-02-09T02:55:04.003Z,15.70
2023-02-09T02:56:05.286Z,15.70
2023-02-09T02:57:05.055Z,15.70
2023-02-09T02:58:03.223Z,15.70
2023-02-09T02:59:02.216Z,15.70
2023-02-09T03:00:05.532Z,14.90
2023-02-09T03:01:02.345Z,14.90
2023-02-09T03:02:05.153Z,14.90
2023-02-09T03:03:04.833Z,14.90
2023-02-09T03:04:02.656Z,14.90
2023-02-09T03:05:01.609Z,14.90
2023-02-09T03:06:02.384Z,14.90
2023-02-09T03:07:03.597Z,14.90
2023-02-09T03:08:00.728Z,14.90
2023-02-09T03:09:01.665Z,14.90
2023-02-09T03:10:03.058Z,14.90
2023-02-09T03:11:00.714Z,14.90
2023-02-09T03:12:10.272Z,14.90
2023-02-09T03:13:10.624Z,14.90
2023-02-09T03:14:10.623Z,14.90
2023-02-09T03:15:10.605Z,14.90
2023-02-09T03:16:00.716Z,14.90
2023-02-09T03:17:10.609Z,14.90
2023-02-09T03:18:10.608Z,14.90
2023-02-09T03:19:07.463Z,14.90
2023-02-09T03:20:07.099Z,14.90
2023-02-09T03:21:06.757Z,14.90
2023-02-09T03:22:06.192Z,14.90
2023-02-09T03:23:02.410Z,14.90
2023-02-09T03:24:03.514Z,14.90
2023-02-09T03:25:04.703Z,14.90
2023-02-09T03:26:06.427Z,14.90
2023-02-09T03:27:07.591Z,14.90
2023-02-09T03:28:05.364Z,14.90
2023-02-09T03:29:01.204Z,14.90
2023-02-09T03:30:03.173Z,13.40
2023-02-09T03:31:02.464Z,13.40
2023-02-09T03:32:00.789Z,13.40
2023-02-09T03:33:02.656Z,13.40
2023-02-09T03:34:01.024Z,13.40
2023-02-09T03:35:01.105Z,13.40
2023-02-09T03:36:01.607Z,13.40
2023-02-09T03:37:00.715Z,13.40
2023-02-09T03:38:00.697Z,13.40
2023-02-09T03:39:00.715Z,13.40
2023-02-09T03:40:00.884Z,13.40
2023-02-09T03:41:00.693Z,13.40
2023-02-09T03:42:00.747Z,13.40
2023-02-09T03:43:00.703Z,13.40
2023-02-09T03:44:00.714Z,13.40
2023-02-09T03:45:00.717Z,13.40
2023-02-09T03:46:00.731Z,13.40
2023-02-09T03:47:02.206Z,13.40
2023-02-09T03:48:00.713Z,13.40
2023-02-09T03:49:00.716Z,13.40
2023-02-09T03:50:00.876Z,13.40
2023-02-09T03:51:00.804Z,13.40
2023-02-09T03:52:01.663Z,13.40
2023-02-09T03:53:01.264Z,13.40
2023-02-09T03:54:00.699Z,13.40
2023-02-09T03:55:00.725Z,13.40
2023-02-09T03:56:00.993Z,13.40
2023-02-09T03:57:00.738Z,13.40
2023-02-09T03:58:00.770Z,13.40
2023-02-09T03:59:00.705Z,13.40
2023-02-09T04:00:00.744Z,12.80
2023-02-09T04:01:01.930Z,12.80
2023-02-09T04:02:01.016Z,12.80
2023-02-09T04:03:00.694Z,12.80
2023-02-09T04:04:01.709Z,12.80
2023-02-09T04:05:00.685Z,12.80
2023-02-09T04:06:01.314Z,12.80
2023-02-09T04:07:00.905Z,12.80
2023-02-09T04:08:00.713Z,12.80
2023-02-09T04:09:01.565Z,12.80
2023-02-09T04:10:00.977Z,12.80
2023-02-09T04:11:00.709Z,12.80
2023-02-09T04:12:00.739Z,12.80
2023-02-09T04:13:00.680Z,12.80
2023-02-09T04:14:00.783Z,12.80
2023-02-09T04:15:01.105Z,12.80
2023-02-09T04:16:00.744Z,12.80
2023-02-09T04:17:00.788Z,12.80
2023-02-09T04:18:00.706Z,12.80
2023-02-09T04:19:00.706Z,12.80
2023-02-09T04:20:00.724Z,12.80
2023-02-09T04:21:00.684Z,12.80
2023-02-09T04:22:00.765Z,12.80
2023-02-09T04:23:00.703Z,12.80
2023-02-09T04:24:00.696Z,12.80
2023-02-09T04:25:00.689Z,12.80
2023-02-09T04:26:00.692Z,12.80
2023-02-09T04:27:00.779Z,12.80
2023-02-09T04:28:01.104Z,12.80
2023-02-09T04:29:00.804Z,12.80
2023-02-09T04:30:00.720Z,12.60
2023-02-09T04:31:00.861Z,12.60
2023-02-09T04:32:00.797Z,12.60
2023-02-09T04:33:00.689Z,12.60
2023-02-09T04:34:00.944Z,12.60
2023-02-09T04:35:00.696Z,12.60
2023-02-09T04:36:01.075Z,12.60
2023-02-09T04:37:00.720Z,12.60
2023-02-09T04:38:00.695Z,12.60
2023-02-09T04:39:00.870Z,12.60
2023-02-09T04:40:00.790Z,12.60
2023-02-09T04:41:01.189Z,12.60
2023-02-09T04:42:00.744Z,12.60
2023-02-09T04:43:00.728Z,12.60
2023-02-09T04:44:00.693Z,12.60
2023-02-09T04:45:00.742Z,12.60
2023-02-09T04:46:00.885Z,12.60
2023-02-09T04:47:00.825Z,12.60
2023-02-09T04:48:00.696Z,12.60
2023-02-09T04:49:00.699Z,12.60
2023-02-09T04:50:00.729Z,12.60
2023-02-09T04:51:00.704Z,12.60
2023-02-09T04:52:00.728Z,12.60
2023-02-09T04:53:00.742Z,12.60
2023-02-09T04:54:00.697Z,12.60
2023-02-09T04:55:00.772Z,12.60
2023-02-09T04:56:00.713Z,12.60
2023-02-09T04:57:00.709Z,12.60
2023-02-09T04:58:00.719Z,12.60
2023-02-09T04:59:00.774Z,12.60
2023-02-09T05:00:00.714Z,12.80
2023-02-09T05:01:01.251Z,12.80
2023-02-09T05:02:00.688Z,12.80
2023-02-09T05:03:00.742Z,12.80
2023-02-09T05:04:00.721Z,12.80
2023-02-09T05:05:00.716Z,12.80
2023-02-09T05:06:02.095Z,12.80
2023-02-09T05:07:00.957Z,12.80
2023-02-09T05:08:00.704Z,12.80
2023-02-09T05:09:00.717Z,12.80
2023-02-09T05:10:00.822Z,12.80
2023-02-09T05:11:00.850Z,12.80
2023-02-09T05:12:00.705Z,12.80
2023-02-09T05:13:00.708Z,12.80
2023-02-09T05:14:00.741Z,12.80
2023-02-09T05:15:00.815Z,12.80
2023-02-09T05:16:04.599Z,12.80
2023-02-09T05:17:01.030Z,12.80
2023-02-09T05:18:00.708Z,12.80
2023-02-09T05:19:00.707Z,12.80
2023-02-09T05:20:00.852Z,12.80
2023-02-09T05:21:00.924Z,12.80
2023-02-09T05:22:00.691Z,12.80
2023-02-09T05:23:00.975Z,12.80
2023-02-09T05:24:00.737Z,12.80
2023-02-09T05:25:00.759Z,12.80
2023-02-09T05:26:00.867Z,12.80
2023-02-09T05:27:00.688Z,12.80
2023-02-09T05:28:00.854Z,12.80
2023-02-09T05:29:00.720Z,12.80
2023-02-09T05:30:00.751Z,12.00
2023-02-09T05:31:00.857Z,12.00
2023-02-09T05:32:00.802Z,12.00
2023-02-09T05:33:00.697Z,12.00
2023-02-09T05:34:00.725Z,12.00
2023-02-09T05:35:00.718Z,12.00
2023-02-09T05:36:00.705Z,12.00
2023-02-09T05:37:00.712Z,12.00
2023-02-09T05:38:00.700Z,12.00
2023-02-09T05:39:00.733Z,12.00
2023-02-09T05:40:00.708Z,12.00
2023-02-09T05:41:04.893Z,12.00
2023-02-09T05:42:00.757Z,12.00
2023-02-09T05:43:00.694Z,12.00
2023-02-09T05:44:01.072Z,12.00
2023-02-09T05:45:00.730Z,12.00
2023-02-09T05:46:01.025Z,12.00
2023-02-09T05:47:00.712Z,12.00
2023-02-09T05:48:00.864Z,12.00
2023-02-09T05:49:00.704Z,12.00
2023-02-09T05:50:01.065Z,12.00
2023-02-09T05:51:00.692Z,12.00
2023-02-09T05:52:00.744Z,12.00
2023-02-09T05:53:00.690Z,12.00
2023-02-09T05:54:00.693Z,12.00
2023-02-09T05:55:00.714Z,12.00
2023-02-09T05:56:00.704Z,12.00
2023-02-09T05:57:00.903Z,12.00
2023-02-09T05:58:00.739Z,12.00
2023-02-09T05:59:01.726Z,12.00
2023-02-09T06:00:01.199Z,13.20
2023-02-09T06:01:00.690Z,13.20
2023-02-09T06:02:00.758Z,13.20
2023-02-09T06:03:00.728Z,13.20
2023-02-09T06:04:00.696Z,13.20
2023-02-09T06:05:00.757Z,13.20
2023-02-09T06:06:00.689Z,13.20
2023-02-09T06:07:00.698Z,13.20
2023-02-09T06:08:00.703Z,13.20
2023-02-09T06:09:00.738Z,13.20
2023-02-09T06:10:00.747Z,13.20
2023-02-09T06:11:00.701Z,13.20
2023-02-09T06:12:00.704Z,13.20
2023-02-09T06:13:00.688Z,13.20
2023-02-09T06:14:00.734Z,13.20
2023-02-09T06:15:00.769Z,13.20
2023-02-09T06:16:00.768Z,13.20
2023-02-09T06:17:00.706Z,13.20
2023-02-09T06:18:00.706Z,13.20
2023-02-09T06:19:00.962Z,13.20
2023-02-09T06:20:00.862Z,13.20
2023-02-09T06:21:00.698Z,13.20
2023-02-09T06:22:00.703Z,13.20
2023-02-09T06:23:00.719Z,13.20
2023-02-09T06:24:00.689Z,13.20
2023-02-09T06:25:00.742Z,13.20
2023-02-09T06:26:04.578Z,13.20
2023-02-09T06:27:00.699Z,13.20
2023-02-09T06:28:00.788Z,13.20
2023-02-09T06:29:00.736Z,13.20
2023-02-09T06:30:00.796Z,13.40
2023-02-09T06:31:00.979Z,13.40
2023-02-09T06:32:00.831Z,13.40
2023-02-09T06:33:00.716Z,13.40
2023-02-09T06:34:00.841Z,13.40
2023-02-09T06:35:00.717Z,13.40
2023-02-09T06:36:01.180Z,13.40
2023-02-09T06:37:00.688Z,13.40
2023-02-09T06:38:00.707Z,13.40
2023-02-09T06:39:00.714Z,13.40
2023-02-09T06:40:00.700Z,13.40
2023-02-09T06:41:00.740Z,13.40
2023-02-09T06:42:00.678Z,13.40
2023-02-09T06:43:00.832Z,13.40
2023-02-09T06:44:00.914Z,13.40
2023-02-09T06:45:00.704Z,13.40
2023-02-09T06:46:04.622Z,13.40
2023-02-09T06:47:00.727Z,13.40
2023-02-09T06:48:00.714Z,13.40
2023-02-09T06:49:00.691Z,13.40
2023-02-09T06:50:01.140Z,13.40
2023-02-09T06:51:00.720Z,13.40
2023-02-09T06:52:00.709Z,13.40
2023-02-09T06:53:00.876Z,13.40
2023-02-09T06:54:00.692Z,13.40
2023-02-09T06:55:00.721Z,13.40
2023-02-09T06:56:01.115Z,13.40
2023-02-09T06:57:00.722Z,13.40
2023-02-09T06:58:01.114Z,13.40
2023-02-09T06:59:00.709Z,13.40
2023-02-09T07:00:00.977Z,12.90
2023-02-09T07:01:02.509Z,12.90
2023-02-09T07:02:00.740Z,12.90
2023-02-09T07:03:00.791Z,12.90
2023-02-09T07:04:00.731Z,12.90
2023-02-09T07:05:00.682Z,12.90
2023-02-09T07:06:04.043Z,12.90
2023-02-09T07:07:00.681Z,12.90
2023-02-09T07:08:00.701Z,12.90
2023-02-09T07:09:00.708Z,12.90
2023-02-09T07:10:00.924Z,12.90
2023-02-09T07:11:02.733Z,12.90
2023-02-09T07:12:00.688Z,12.90
2023-02-09T07:13:00.700Z,12.90
2023-02-09T07:14:00.690Z,12.90
2023-02-09T07:15:00.826Z,12.90
2023-02-09T07:16:01.869Z,12.90
2023-02-09T07:17:00.731Z,12.90
2023-02-09T07:18:00.725Z,12.90
2023-02-09T07:19:00.696Z,12.90
2023-02-09T07:20:00.796Z,12.90
2023-02-09T07:21:02.708Z,12.90
2023-02-09T07:22:00.690Z,12.90
2023-02-09T07:23:00.694Z,12.90
2023-02-09T07:24:00.694Z,12.90
2023-02-09T07:25:00.744Z,12.90
2023-02-09T07:26:01.841Z,12.90
2023-02-09T07:27:00.694Z,12.90
2023-02-09T07:28:00.761Z,12.90
2023-02-09T07:29:00.692Z,12.90
2023-02-09T07:30:01.347Z,13.10
2023-02-09T07:31:02.364Z,13.10
2023-02-09T07:32:00.763Z,13.10
2023-02-09T07:33:00.688Z,13.10
2023-02-09T07:34:00.699Z,13.10
2023-02-09T07:35:00.727Z,13.10
2023-02-09T07:36:03.387Z,13.10
2023-02-09T07:37:00.731Z,13.10
2023-02-09T07:38:00.694Z,13.10
2023-02-09T07:39:00.747Z,13.10
2023-02-09T07:40:00.803Z,13.10
2023-02-09T07:41:01.597Z,13.10
2023-02-09T07:42:00.726Z,13.10
2023-02-09T07:43:00.688Z,13.10
2023-02-09T07:44:00.793Z,13.10
2023-02-09T07:45:00.695Z,13.10
2023-02-09T07:46:01.944Z,13.10
2023-02-09T07:47:00.698Z,13.10
2023-02-09T07:48:00.714Z,13.10
2023-02-09T07:49:01.531Z,13.10
2023-02-09T07:50:00.795Z,13.10
2023-02-09T07:51:00.868Z,13.10
2023-02-09T07:52:00.806Z,13.10
2023-02-09T07:53:00.691Z,13.10
2023-02-09T07:54:00.744Z,13.10
2023-02-09T07:55:00.725Z,13.10
2023-02-09T07:56:00.716Z,13.10
2023-02-09T07:57:00.700Z,13.10
2023-02-09T07:58:00.707Z,13.10
2023-02-09T07:59:00.743Z,13.10
2023-02-09T08:00:00.762Z,11.80
2023-02-09T08:01:03.671Z,11.80
2023-02-09T08:02:00.741Z,11.80
2023-02-09T08:03:00.794Z,11.80
2023-02-09T08:04:00.692Z,11.80
2023-02-09T08:05:01.458Z,11.80
2023-02-09T08:06:02.797Z,11.80
2023-02-09T08:07:00.711Z,11.80
2023-02-09T08:08:00.694Z,11.80
2023-02-09T08:09:00.698Z,11.80
2023-02-09T08:10:00.786Z,11.80
2023-02-09T08:11:01.334Z,11.80
2023-02-09T08:12:02.203Z,11.80
2023-02-09T08:13:00.857Z,11.80
2023-02-09T08:14:03.536Z,11.80
2023-02-09T08:15:00.727Z,11.80
2023-02-09T08:16:02.546Z,11.80
2023-02-09T08:17:03.579Z,11.80
2023-02-09T08:18:03.293Z,11.80
2023-02-09T08:19:02.578Z,11.80
2023-02-09T08:20:05.268Z,11.80
2023-02-09T08:21:02.906Z,11.80
2023-02-09T08:22:00.714Z,11.80
2023-02-09T08:23:04.928Z,11.80
2023-02-09T08:24:01.957Z,11.80
2023-02-09T08:25:02.157Z,11.80
2023-02-09T08:26:05.319Z,11.80
2023-02-09T08:27:00.747Z,11.80
2023-02-09T08:28:01.447Z,11.80
2023-02-09T08:29:00.908Z,11.80
2023-02-09T08:30:01.634Z,11.70
2023-02-09T08:31:00.739Z,11.70
2023-02-09T08:32:00.808Z,11.70
2023-02-09T08:33:01.007Z,11.70
2023-02-09T08:34:00.735Z,11.70
2023-02-09T08:35:00.749Z,11.70
2023-02-09T08:36:00.727Z,11.70
2023-02-09T08:37:00.696Z,11.70
2023-02-09T08:38:01.712Z,11.70
2023-02-09T08:39:00.744Z,11.70
2023-02-09T08:40:00.714Z,11.70
2023-02-09T08:41:01.919Z,11.70
2023-02-09T08:42:00.719Z,11.70
2023-02-09T08:43:00.716Z,11.70
2023-02-09T08:44:01.587Z,11.70
2023-02-09T08:45:00.793Z,11.70
2023-02-09T08:46:02.318Z,11.70
2023-02-09T08:47:00.908Z,11.70
2023-02-09T08:48:00.706Z,11.70
2023-02-09T08:49:00.701Z,11.70
2023-02-09T08:50:00.725Z,11.70
2023-02-09T08:51:00.718Z,11.70
2023-02-09T08:52:00.692Z,11.70
2023-02-09T08:53:00.844Z,11.70
2023-02-09T08:54:00.693Z,11.70
2023-02-09T08:55:00.948Z,11.70
2023-02-09T08:56:00.745Z,11.70
2023-02-09T08:57:00.893Z,11.70
2023-02-09T08:58:00.704Z,11.70
2023-02-09T08:59:00.706Z,11.70
2023-02-09T09:00:00.781Z,11.50
2023-02-09T09:01:00.802Z,11.50
2023-02-09T09:02:00.717Z,11.50
2023-02-09T09:03:03.168Z,11.50
2023-02-09T09:04:00.736Z,11.50
2023-02-09T09:05:00.836Z,11.50
2023-02-09T09:06:02.014Z,11.50
2023-02-09T09:07:00.753Z,11.50
2023-02-09T09:08:00.914Z,11.50
2023-02-09T09:09:00.731Z,11.50
2023-02-09T09:10:00.689Z,11.50
2023-02-09T09:11:00.761Z,11.50
2023-02-09T09:12:00.707Z,11.50
2023-02-09T09:13:00.700Z,11.50
2023-02-09T09:14:00.731Z,11.50
2023-02-09T09:15:00.715Z,11.50
2023-02-09T09:16:00.715Z,11.50
2023-02-09T09:17:00.828Z,11.50
2023-02-09T09:18:00.728Z,11.50
2023-02-09T09:19:00.711Z,11.50
2023-02-09T09:20:00.724Z,11.50
2023-02-09T09:21:00.697Z,11.50
2023-02-09T09:22:00.947Z,11.50
2023-02-09T09:23:00.719Z,11.50
2023-02-09T09:24:00.723Z,11.50
2023-02-09T09:25:00.761Z,11.50
2023-02-09T09:26:01.305Z,11.50
2023-02-09T09:27:00.696Z,11.50
2023-02-09T09:28:00.793Z,11.50
2023-02-09T09:29:00.809Z,11.50
2023-02-09T09:30:01.595Z,12.90
2023-02-09T09:31:06.052Z,12.90
2023-02-09T09:32:00.846Z,12.90
2023-02-09T09:33:00.915Z,12.90
2023-02-09T09:34:00.707Z,12.90
2023-02-09T09:35:00.713Z,12.90
2023-02-09T09:36:01.413Z,12.90
2023-02-09T09:37:00.720Z,12.90
2023-02-09T09:38:00.733Z,12.90
2023-02-09T09:39:00.768Z,12.90
2023-02-09T09:40:00.837Z,12.90
2023-02-09T09:41:00.794Z,12.90
2023-02-09T09:42:00.806Z,12.90
2023-02-09T09:43:03.540Z,12.90
2023-02-09T09:44:01.594Z,12.90
2023-02-09T09:45:02.106Z,12.90
2023-02-09T09:46:01.986Z,12.90
2023-02-09T09:47:05.598Z,12.90
2023-02-09T09:48:00.754Z,12.90
2023-02-09T09:49:01.247Z,12.90
2023-02-09T09:50:01.060Z,12.90
2023-02-09T09:51:05.869Z,12.90
2023-02-09T09:52:10.614Z,12.90
2023-02-09T09:53:03.971Z,12.90
2023-02-09T09:54:01.951Z,12.90
2023-02-09T09:55:04.747Z,12.90
2023-02-09T09:56:03.962Z,12.90
2023-02-09T09:57:00.958Z,12.90
2023-02-09T09:58:02.839Z,12.90
2023-02-09T09:59:00.949Z,12.90
2023-02-09T10:00:01.557Z,11.50
2023-02-09T10:01:00.778Z,11.50
2023-02-09T10:02:11.348Z,11.50
2023-02-09T10:03:01.344Z,11.50
2023-02-09T10:04:05.577Z,11.50
2023-02-09T10:05:09.116Z,11.50
2023-02-09T10:06:08.880Z,11.50
2023-02-09T10:07:03.952Z,11.50
2023-02-09T10:08:04.273Z,11.50
2023-02-09T10:09:03.472Z,11.50
2023-02-09T10:10:02.807Z,11.50
2023-02-09T10:11:09.372Z,11.50
2023-02-09T10:12:10.607Z,11.50
2023-02-09T10:13:02.190Z,11.50
2023-02-09T10:14:00.707Z,11.50
2023-02-09T10:15:10.600Z,11.50
2023-02-09T10:16:00.790Z,11.50
2023-02-09T10:17:00.802Z,11.50
2023-02-09T10:18:01.008Z,11.50
2023-02-09T10:19:01.862Z,11.50
2023-02-09T10:20:04.180Z,11.50
2023-02-09T10:21:02.713Z,11.50
2023-02-09T10:22:00.763Z,11.50
2023-02-09T10:23:00.728Z,11.50
2023-02-09T10:24:00.715Z,11.50
2023-02-09T10:25:00.992Z,11.50
2023-02-09T10:26:03.295Z,11.50
2023-02-09T10:27:01.686Z,11.50
2023-02-09T10:28:00.780Z,11.50
2023-02-09T10:29:10.620Z,11.50
2023-02-09T10:30:10.602Z,9.00
2023-02-09T10:31:02.148Z,9.00
2023-02-09T10:32:03.980Z,9.00
2023-02-09T10:33:01.276Z,9.00
2023-02-09T10:34:04.026Z,9.00
2023-02-09T10:35:00.834Z,9.00
2023-02-09T10:36:00.720Z,9.00
2023-02-09T10:37:10.620Z,9.00
2023-02-09T10:38:01.474Z,9.00
2023-02-09T10:39:04.017Z,9.00
2023-02-09T10:40:08.087Z,9.00
2023-02-09T10:41:00.721Z,9.00
2023-02-09T10:42:10.606Z,9.00
2023-02-09T10:43:02.223Z,9.00
2023-02-09T10:44:04.721Z,9.00
2023-02-09T10:45:10.592Z,9.00
2023-02-09T10:46:03.298Z,9.00
2023-02-09T10:47:10.611Z,9.00
2023-02-09T10:48:07.365Z,9.00
2023-02-09T10:49:00.720Z,9.00
2023-02-09T10:50:05.217Z,9.00
2023-02-09T10:51:05.030Z,9.00
2023-02-09T10:52:10.613Z,9.00
2023-02-09T10:53:02.120Z,9.00
2023-02-09T10:54:04.096Z,9.00
2023-02-09T10:55:04.614Z,9.00
2023-02-09T10:56:01.803Z,9.00
2023-02-09T10:57:02.132Z,9.00
2023-02-09T10:58:05.575Z,9.00
2023-02-09T10:59:10.618Z,9.00
2023-02-09T11:00:10.594Z,3.90
2023-02-09T11:01:03.981Z,3.90
2023-02-09T11:02:01.137Z,3.90
2023-02-09T11:03:00.681Z,3.90
2023-02-09T11:04:02.359Z,3.90
2023-02-09T11:05:00.963Z,3.90
2023-02-09T11:06:05.674Z,3.90
2023-02-09T11:07:03.059Z,3.90
2023-02-09T11:08:00.683Z,3.90
2023-02-09T11:09:02.803Z,3.90
2023-02-09T11:10:00.965Z,3.90
2023-02-09T11:11:04.856Z,3.90
2023-02-09T11:15:00.695Z,3.90
2023-02-09T11:16:00.725Z,3.90
2023-02-09T11:17:01.719Z,3.90
2023-02-09T11:18:05.332Z,3.90
2023-02-09T11:19:11.419Z,3.90
2023-02-09T11:20:04.068Z,3.90
2023-02-09T11:21:08.887Z,3.90
2023-02-09T11:22:07.104Z,3.90
2023-02-09T11:23:10.588Z,3.90
2023-02-09T11:24:10.601Z,3.90
2023-02-09T11:25:10.604Z,3.90
2023-02-09T11:26:06.400Z,3.90
2023-02-09T11:27:05.659Z,3.90
2023-02-09T11:28:10.688Z,3.90
2023-02-09T11:29:00.666Z,3.90
2023-02-09T11:30:10.598Z,4.10
2023-02-09T11:31:10.726Z,4.10
2023-02-09T11:32:06.156Z,4.10
2023-02-09T11:33:10.589Z,4.10
2023-02-09T11:34:10.617Z,4.10
2023-02-09T11:35:05.432Z,4.10
2023-02-09T11:36:00.677Z,4.10
2023-02-09T11:37:10.696Z,4.10
2023-02-09T11:38:02.772Z,4.10
2023-02-09T11:39:02.085Z,4.10
2023-02-09T11:40:08.222Z,4.10
2023-02-09T11:41:03.092Z,4.10
2023-02-09T11:42:04.292Z,4.10
2023-02-09T11:43:10.610Z,4.10
2023-02-09T11:44:03.226Z,4.10
2023-02-09T11:45:04.514Z,4.10
2023-02-09T11:46:04.294Z,4.10
2023-02-09T11:47:04.086Z,4.10
2023-02-09T11:48:00.678Z,4.10
2023-02-09T11:49:04.917Z,4.10
2023-02-09T11:50:04.685Z,4.10
2023-02-09T11:51:08.172Z,4.10
2023-02-09T11:52:02.322Z,4.10
2023-02-09T11:53:04.705Z,4.10
2023-02-09T11:54:01.679Z,4.10
2023-02-09T11:55:06.902Z,4.10
2023-02-09T11:56:02.954Z,4.10
2023-02-09T11:57:04.451Z,4.10
2023-02-09T11:58:10.587Z,4.10
2023-02-09T11:59:10.592Z,4.10
2023-02-09T12:00:02.341Z,3.90
2023-02-09T12:01:15.538Z,3.90
2023-02-09T12:02:10.609Z,3.90
2023-02-09T12:03:07.591Z,3.90
2023-02-09T12:04:10.593Z,3.90
2023-02-09T12:05:01.548Z,3.90
2023-02-09T12:06:01.259Z,3.90
2023-02-09T12:07:03.854Z,3.90
2023-02-09T12:08:10.601Z,3.90
2023-02-09T12:09:00.751Z,3.90
2023-02-09T12:10:10.644Z,3.90
2023-02-09T12:11:09.222Z,3.90
2023-02-09T12:12:00.660Z,3.90
2023-02-09T12:13:05.772Z,3.90
2023-02-09T12:14:09.146Z,3.90
2023-02-09T12:15:05.364Z,3.90
2023-02-09T12:16:03.543Z,3.90
2023-02-09T12:17:07.005Z,3.90
2023-02-09T12:18:10.612Z,3.90
2023-02-09T12:19:01.346Z,3.90
2023-02-09T12:20:01.209Z,3.90
2023-02-09T12:21:03.354Z,3.90
2023-02-09T12:22:10.606Z,3.90
2023-02-09T12:23:10.590Z,3.90
2023-02-09T12:24:00.872Z,3.90
2023-02-09T12:25:10.600Z,3.90
2023-02-09T12:26:10.588Z,3.90
2023-02-09T12:27:00.668Z,3.90
2023-02-09T12:28:09.881Z,3.90
2023-02-09T12:29:10.601Z,3.90
2023-02-09T12:30:00.750Z,3.00
2023-02-09T12:31:02.883Z,3.00
2023-02-09T12:32:04.133Z,3.00
2023-02-09T12:33:10.608Z,3.00
2023-02-09T12:34:08.389Z,3.00
2023-02-09T12:35:10.608Z,3.00
2023-02-09T12:36:00.691Z,3.00
2023-02-09T12:37:10.603Z,3.00
2023-02-09T12:38:10.591Z,3.00
2023-02-09T12:39:05.496Z,3.00
2023-02-09T12:40:10.599Z,3.00
2023-02-09T12:41:03.128Z,3.00
2023-02-09T12:42:03.930Z,3.00
2023-02-09T12:43:00.689Z,3.00
2023-02-09T12:44:10.619Z,3.00
2023-02-09T12:45:00.718Z,3.00
2023-02-09T12:46:10.696Z,3.00
2023-02-09T12:47:00.695Z,3.00
2023-02-09T12:48:10.227Z,3.00
2023-02-09T12:49:00.672Z,3.00
2023-02-09T12:50:02.724Z,3.00
2023-02-09T12:51:00.702Z,3.00
2023-02-09T12:52:00.698Z,3.00
2023-02-09T12:53:10.613Z,3.00
2023-02-09T12:54:00.709Z,3.00
2023-02-09T12:55:10.296Z,3.00
2023-02-09T12:56:00.670Z,3.00
2023-02-09T12:57:10.601Z,3.00
2023-02-09T12:58:00.703Z,3.00
2023-02-09T12:59:08.060Z,3.00
2023-02-09T13:00:03.965Z,3.90